Time;durP1;ratioP1;P1;durP2;ratioP2;P2;SDS_P1;SDS_P2;PMS_P1;PMS_P2;Temp;Humidity;BMP_temperature;BMP_pressure;BME280_temperature;BME280_humidity;BME280_pressure;Samples;Min_cycle;Max_cycle;Signal;HPM_P1;HPM_P2
2022/03/09 00:00:06;;;;;;;;;;;;;;;4.93;39.52;100440.81;4432167;32;19986;-70
2022/03/09 00:02:34;;;;;;;;;;;;;;;4.73;40.42;100449.25;4432706;32;20023;-70
2022/03/09 00:05:01;;;;;;;;;;;;;;;4.72;39.93;100438.06;4436010;32;19992;-70
2022/03/09 00:07:27;;;;;;;;;;;;;;;4.78;39.67;100437.50;4415324;32;20043;-71
2022/03/09 00:09:54;;;;;;;;;;;;;;;4.81;39.30;100437.66;4417522;32;20001;-71
2022/03/09 00:12:25;;;;;;;;;;;;;;;4.97;38.87;100435.03;4423586;32;19982;-71
2022/03/09 00:14:51;;;;;;;;;;;;;;;4.95;40.00;100436.66;4417584;32;19990;-71
2022/03/09 00:17:18;;;;;;;;;;;;;;;5.08;39.39;100449.25;4416691;32;19982;-72
2022/03/09 00:19:45;;;;;;;;;;;;;;;5.11;38.95;100445.97;4427791;32;20040;-70
2022/03/09 00:22:12;;;;;;;;;;;;;;;5.16;38.51;100451.31;4430991;32;19993;-71
2022/03/09 00:24:39;;;;;;;;;;;;;;;4.85;39.76;100449.81;4433713;32;19982;-71
2022/03/09 00:27:06;;;;;;;;;;;;;;;4.95;39.55;100446.91;4424702;32;20880;-70
2022/03/09 00:29:33;;;;;;;;;;;;;;;4.77;40.15;100446.00;4428084;32;20369;-71
2022/03/09 00:32:00;;;;;;;;;;;;;;;4.85;39.64;100449.81;4420538;32;20001;-71
2022/03/09 00:34:27;;;;;;;;;;;;;;;4.74;39.74;100446.75;4428863;32;19989;-70
2022/03/09 00:36:54;;;;;;;;;;;;;;;4.86;39.58;100449.03;4434570;32;20002;-71
2022/03/09 00:39:21;;;;;;;;;;;;;;;4.84;39.66;100448.06;4415684;32;19982;-71
2022/03/09 00:41:47;;;;;;;;;;;;;;;4.74;39.60;100451.88;4416445;32;19966;-71
2022/03/09 00:44:14;;;;;;;;;;;;;;;4.86;39.51;100451.59;4418357;32;19966;-71
2022/03/09 00:46:42;;;;;;;;;;;;;;;5.08;39.42;100448.38;4423156;32;20006;-71
2022/03/09 00:49:09;;;;;;;;;;;;;;;4.85;40.41;100444.69;4416579;32;20040;-71
2022/03/09 00:51:35;;;;;;;;;;;;;;;4.84;40.08;100442.94;4416166;32;19978;-71
2022/03/09 00:54:02;;;;;;;;;;;;;;;4.60;40.54;100438.38;4416123;32;19986;-71
2022/03/09 00:56:29;;;;;;;;;;;;;;;4.91;39.55;100432.16;4427642;32;20805;-71
2022/03/09 00:58:56;;;;;;;;;;;;;;;4.92;39.80;100435.62;4424895;32;20776;-71
2022/03/09 01:01:23;;;;;;;;;;;;;;;4.96;38.93;100433.28;4416941;32;19978;-71
2022/03/09 01:03:50;;;;;;;;;;;;;;;5.00;39.05;100430.03;4424589;32;19981;-71
2022/03/09 01:06:17;;;;;;;;;;;;;;;5.12;39.66;100420.34;4426890;32;19990;-71
2022/03/09 01:08:44;;;;;;;;;;;;;;;5.16;39.57;100425.62;4416388;32;20044;-71
2022/03/09 01:11:11;;;;;;;;;;;;;;;5.00;39.40;100424.91;4417940;32;20004;-71
2022/03/09 01:13:37;;;;;;;;;;;;;;;5.04;39.53;100421.69;4422783;32;20017;-71
2022/03/09 01:16:05;;;;;;;;;;;;;;;5.05;39.59;100412.31;4413840;32;19995;-71
2022/03/09 01:18:33;;;;;;;;;;;;;;;4.78;40.08;100411.84;4419352;32;20385;-71
2022/03/09 01:21:00;;;;;;;;;;;;;;;4.94;39.70;100414.34;4416183;32;19974;-71
2022/03/09 01:23:27;;;;;;;;;;;;;;;4.89;40.21;100411.56;4415592;32;19989;-71
2022/03/09 01:25:53;;;;;;;;;;;;;;;5.09;39.60;100401.38;4420443;32;19995;-71
2022/03/09 01:28:20;;;;;;;;;;;;;;;4.89;40.24;100410.72;4420156;32;19974;-70
2022/03/09 01:30:47;;;;;;;;;;;;;;;4.99;39.60;100410.34;4416274;32;19989;-71
2022/03/09 01:33:14;;;;;;;;;;;;;;;5.13;39.27;100405.84;4417472;32;20031;-71
2022/03/09 01:35:41;;;;;;;;;;;;;;;5.15;39.22;100408.50;4434721;32;20423;-70
2022/03/09 01:38:08;;;;;;;;;;;;;;;5.21;38.94;100398.53;4416198;32;19992;-71
2022/03/09 01:40:35;;;;;;;;;;;;;;;5.13;39.07;100411.84;4417144;32;20386;-71
2022/03/09 01:43:01;;;;;;;;;;;;;;;4.92;39.35;100413.41;4423527;32;19994;-71
2022/03/09 01:45:28;;;;;;;;;;;;;;;5.03;39.00;100419.03;4423147;32;20330;-71
2022/03/09 01:47:55;;;;;;;;;;;;;;;5.15;39.17;100431.59;4418235;32;19982;-71
2022/03/09 01:50:22;;;;;;;;;;;;;;;5.15;39.57;100435.03;4418093;32;20322;-71
2022/03/09 01:52:49;;;;;;;;;;;;;;;5.10;39.29;100434.78;4433855;32;19977;-71
2022/03/09 01:55:16;;;;;;;;;;;;;;;4.99;39.41;100438.56;4427716;32;19989;-71
2022/03/09 01:57:42;;;;;;;;;;;;;;;5.10;39.19;100432.22;4417085;32;20302;-70
2022/03/09 02:00:10;;;;;;;;;;;;;;;4.83;39.59;100439.50;4422142;32;19977;-70
2022/03/09 02:02:37;;;;;;;;;;;;;;;4.89;39.35;100444.06;4415795;32;19986;-71
2022/03/09 02:05:06;;;;;;;;;;;;;;;4.79;39.48;100439.28;4422150;32;20294;-71
2022/03/09 02:10:20;;;;;;;;;;;;;;;4.96;39.41;100433.28;4431513;32;20001;-70
2022/03/09 02:12:46;;;;;;;;;;;;;;;4.76;39.78;100440.00;4437230;32;20378;-71
2022/03/09 02:15:13;;;;;;;;;;;;;;;4.92;39.05;100445.88;4425088;32;20267;-71
2022/03/09 02:17:40;;;;;;;;;;;;;;;5.03;39.72;100445.56;4415836;32;20005;-71
2022/03/09 02:20:07;;;;;;;;;;;;;;;5.16;39.22;100439.34;4422209;32;20034;-70
2022/03/09 02:22:38;;;;;;;;;;;;;;;5.06;40.10;100435.47;4427018;32;19993;-70
2022/03/09 02:25:07;;;;;;;;;;;;;;;4.83;40.68;100430.94;4415879;32;19995;-70
2022/03/09 02:27:34;;;;;;;;;;;;;;;5.01;40.08;100426.69;4415527;32;20041;-70
2022/03/09 02:30:05;;;;;;;;;;;;;;;5.05;40.55;100433.72;4410381;32;20792;-70
2022/03/09 02:32:32;;;;;;;;;;;;;;;4.89;40.60;100436.34;4420304;32;19974;-70
2022/03/09 02:34:58;;;;;;;;;;;;;;;5.02;39.94;100440.37;4419463;32;19973;-71
2022/03/09 02:37:25;;;;;;;;;;;;;;;5.03;39.88;100437.88;4419587;32;21097;-70
2022/03/09 02:39:52;;;;;;;;;;;;;;;5.18;40.10;100444.56;4442291;32;20000;-71
2022/03/09 02:42:19;;;;;;;;;;;;;;;4.96;40.82;100438.41;4430923;32;20372;-70
2022/03/09 02:44:46;;;;;;;;;;;;;;;4.89;40.95;100436.34;4425721;32;19981;-70
2022/03/09 02:47:13;;;;;;;;;;;;;;;4.97;40.42;100439.28;4421396;32;19996;-71
2022/03/09 02:49:39;;;;;;;;;;;;;;;5.02;40.86;100440.37;4430577;32;20047;-71
2022/03/09 02:52:06;;;;;;;;;;;;;;;4.62;41.19;100436.75;4431808;32;19974;-70
2022/03/09 02:54:33;;;;;;;;;;;;;;;4.96;40.28;100443.53;4437152;32;20351;-70
2022/03/09 02:57:00;;;;;;;;;;;;;;;4.95;40.38;100446.03;4418537;32;20025;-70
2022/03/09 02:59:27;;;;;;;;;;;;;;;4.90;40.00;100448.38;4416389;32;19969;-71
2022/03/09 03:01:54;;;;;;;;;;;;;;;5.18;39.68;100444.56;4421731;32;20001;-71
2022/03/09 03:04:21;;;;;;;;;;;;;;;5.22;39.95;100451.59;4416165;32;20027;-71
2022/03/09 03:06:48;;;;;;;;;;;;;;;5.13;40.05;100441.75;4421907;32;20038;-70
2022/03/09 03:09:15;;;;;;;;;;;;;;;5.07;40.03;100442.38;4417774;32;19966;-71
2022/03/09 03:11:44;;;;;;;;;;;;;;;4.96;40.39;100433.28;4415287;32;20016;-71
2022/03/09 03:14:11;;;;;;;;;;;;;;;5.04;40.53;100426.84;4418830;32;19992;-71
2022/03/09 03:16:38;;;;;;;;;;;;;;;5.09;40.20;100425.34;4432056;32;19992;-70
2022/03/09 03:19:05;;;;;;;;;;;;;;;5.23;40.13;100418.31;4420679;32;19986;-70
2022/03/09 03:21:32;;;;;;;;;;;;;;;5.12;40.63;100420.34;4418934;32;20018;-71
2022/03/09 03:23:59;;;;;;;;;;;;;;;5.23;40.21;100409.72;4415514;32;20352;-71
2022/03/09 03:26:28;;;;;;;;;;;;;;;5.14;40.19;100417.88;4415469;32;20332;-70
2022/03/09 03:28:55;;;;;;;;;;;;;;;5.16;39.83;100430.78;4423184;32;20316;-71
2022/03/09 03:31:22;;;;;;;;;;;;;;;5.05;40.23;100423.44;4415607;32;19978;-70
2022/03/09 03:33:50;;;;;;;;;;;;;;;5.20;40.15;100419.84;4414996;32;20357;-70
2022/03/09 03:36:17;;;;;;;;;;;;;;;5.11;40.83;100410.91;4426944;32;20000;-71
2022/03/09 03:38:44;;;;;;;;;;;;;;;5.30;40.77;100416.91;4426530;32;20327;-71
2022/03/09 03:41:11;;;;;;;;;;;;;;;5.04;41.47;100421.69;4415357;32;19994;-70
2022/03/09 03:43:38;;;;;;;;;;;;;;;4.75;41.84;100427.97;4419161;32;20028;-70
2022/03/09 03:46:05;;;;;;;;;;;;;;;5.03;41.57;100426.75;4422298;32;20007;-71
2022/03/09 03:48:33;;;;;;;;;;;;;;;4.94;40.83;100424.59;4415219;32;20037;-71
2022/03/09 03:50:59;;;;;;;;;;;;;;;5.16;40.88;100423.94;4415014;32;19981;-71
2022/03/09 03:53:27;;;;;;;;;;;;;;;5.12;40.73;100425.50;4415046;32;19978;-71
2022/03/09 03:55:57;;;;;;;;;;;;;;;5.12;40.35;100430.63;4423130;32;20394;-71
2022/03/09 03:58:24;;;;;;;;;;;;;;;5.26;39.97;100435.53;4414981;32;20025;-71
2022/03/09 04:00:51;;;;;;;;;;;;;;;4.97;40.86;100429.87;4415141;32;20382;-71
2022/03/09 04:03:19;;;;;;;;;;;;;;;4.75;41.38;100427.09;4435195;32;19985;-71
2022/03/09 04:05:46;;;;;;;;;;;;;;;4.96;40.90;100423.00;4426040;32;19982;-70
2022/03/09 04:08:12;;;;;;;;;;;;;;;5.03;40.46;100425.06;4414747;32;20343;-71
2022/03/09 04:10:39;;;;;;;;;;;;;;;5.13;40.85;100427.25;4416830;32;19993;-70
2022/03/09 04:13:06;;;;;;;;;;;;;;;5.01;40.83;100426.69;4421516;32;20007;-71
2022/03/09 04:15:33;;;;;;;;;;;;;;;4.96;40.66;100414.44;4414338;32;19982;-70
2022/03/09 04:18:04;;;;;;;;;;;;;;;4.82;40.78;100418.91;4426032;32;19981;-71
2022/03/09 04:20:30;;;;;;;;;;;;;;;5.06;39.94;100420.06;4415348;32;20028;-71
2022/03/09 04:22:57;;;;;;;;;;;;;;;5.21;39.81;100408.78;4434766;32;19985;-70
2022/03/09 04:25:26;;;;;;;;;;;;;;;5.19;39.77;100407.81;4415011;32;19995;-71
2022/03/09 04:27:53;;;;;;;;;;;;;;;5.28;39.42;100410.81;4421512;32;20323;-71
2022/03/09 04:30:22;;;;;;;;;;;;;;;5.23;40.42;100418.31;4428414;32;20061;-70
2022/03/09 04:32:49;;;;;;;;;;;;;;;5.23;39.65;100412.28;4422023;32;19990;-71
2022/03/09 04:35:15;;;;;;;;;;;;;;;5.35;39.28;100416.28;4414252;32;20355;-71
2022/03/09 04:37:42;;;;;;;;;;;;;;;5.36;40.05;100418.06;4414762;32;20732;-69
2022/03/09 04:40:09;;;;;;;;;;;;;;;5.35;40.36;100423.13;4418299;32;20256;-69
2022/03/09 04:42:36;;;;;;;;;;;;;;;5.48;40.31;100427.13;4417236;32;19977;-69
2022/03/09 04:45:03;;;;;;;;;;;;;;;5.39;40.38;100425.00;4422969;32;20084;-69
2022/03/09 04:47:30;;;;;;;;;;;;;;;5.42;40.38;100425.16;4423070;32;19984;-69
2022/03/09 04:49:57;;;;;;;;;;;;;;;5.29;40.68;100412.56;4432299;32;19973;-69
2022/03/09 04:52:24;;;;;;;;;;;;;;;5.28;40.42;100411.69;4431483;32;19996;-69
2022/03/09 04:54:51;;;;;;;;;;;;;;;5.38;40.17;100418.12;4431323;32;19996;-69
2022/03/09 04:57:17;;;;;;;;;;;;;;;5.25;40.49;100431.22;4431929;32;19973;-69
2022/03/09 04:59:44;;;;;;;;;;;;;;;5.27;40.41;100429.59;4437289;32;19989;-69
2022/03/09 05:02:12;;;;;;;;;;;;;;;5.35;40.30;100433.37;4433899;32;20038;-70
2022/03/09 05:04:39;;;;;;;;;;;;;;;5.24;40.29;100430.34;4434661;32;20477;-71
2022/03/09 05:07:06;;;;;;;;;;;;;;;5.12;40.55;100422.94;4416448;32;20043;-71
2022/03/09 05:09:33;;;;;;;;;;;;;;;5.13;40.27;100411.84;4424944;32;19985;-70
2022/03/09 05:12:00;;;;;;;;;;;;;;;5.34;39.98;100405.97;4416891;32;20050;-69
2022/03/09 05:14:27;;;;;;;;;;;;;;;5.43;39.20;100405.53;4415075;32;19982;-69
2022/03/09 05:16:54;;;;;;;;;;;;;;;5.48;39.32;100409.16;4416442;32;19974;-69
2022/03/09 05:19:21;;;;;;;;;;;;;;;5.39;40.21;100404.47;4417034;32;19997;-69
2022/03/09 05:21:47;;;;;;;;;;;;;;;5.53;39.55;100413.69;4426696;32;19995;-69
2022/03/09 05:24:35;;;;;;;;;;;;;;;5.64;39.86;100411.59;4440813;32;20032;-69
2022/03/09 05:27:02;;;;;;;;;;;;;;;5.49;39.92;100416.06;4430311;32;19985;-69
2022/03/09 05:29:29;;;;;;;;;;;;;;;5.70;39.66;100418.72;4424029;32;19970;-69
2022/03/09 05:31:56;;;;;;;;;;;;;;;5.59;40.13;100419.13;4429476;32;20000;-72
2022/03/09 05:34:22;;;;;;;;;;;;;;;5.58;40.31;100427.63;4443280;32;20331;-72
2022/03/09 05:36:49;;;;;;;;;;;;;;;5.46;41.44;100421.94;4429425;32;19974;-71
2022/03/09 05:39:16;;;;;;;;;;;;;;;5.70;40.13;100421.28;4427937;32;19977;-72
2022/03/09 05:41:43;;;;;;;;;;;;;;;5.74;40.27;100423.16;4442316;32;19989;-71
2022/03/09 05:44:09;;;;;;;;;;;;;;;5.59;41.39;100419.13;4427135;32;20032;-71
2022/03/09 05:46:36;;;;;;;;;;;;;;;5.60;41.37;100425.12;4430162;32;19986;-72
2022/03/09 05:49:03;;;;;;;;;;;;;;;5.89;40.67;100416.16;4430799;32;19981;-72
2022/03/09 05:51:31;;;;;;;;;;;;;;;5.69;40.39;100424.66;4426124;32;19977;-71
2022/03/09 05:53:58;;;;;;;;;;;;;;;5.67;40.65;100436.56;4418739;32;19997;-72
2022/03/09 05:56:25;;;;;;;;;;;;;;;5.75;40.73;100446.38;4421075;32;19969;-72
2022/03/09 05:58:52;;;;;;;;;;;;;;;5.85;40.66;100451.91;4432628;32;20048;-71
2022/03/09 06:01:21;;;;;;;;;;;;;;;5.77;41.16;100460.13;4423158;32;20299;-72
2022/03/09 06:03:48;;;;;;;;;;;;;;;5.92;40.17;100465.09;4415852;32;19990;-72
2022/03/09 06:06:15;;;;;;;;;;;;;;;5.94;40.50;100468.66;4422571;32;20322;-71
2022/03/09 06:08:42;;;;;;;;;;;;;;;6.16;40.54;100475.62;4428868;32;19978;-71
2022/03/09 06:11:09;;;;;;;;;;;;;;;6.05;40.31;100488.00;4418256;32;20307;-72
2022/03/09 06:13:36;;;;;;;;;;;;;;;6.23;40.54;100487.06;4433424;32;20413;-72
2022/03/09 06:16:03;;;;;;;;;;;;;;;6.31;39.85;100487.38;4416104;32;20304;-72
2022/03/09 06:18:30;;;;;;;;;;;;;;;6.20;40.04;100487.81;4417778;32;20886;-72
2022/03/09 06:20:57;;;;;;;;;;;;;;;6.35;39.62;100487.59;4424480;32;20326;-73
2022/03/09 06:23:24;;;;;;;;;;;;;;;6.36;39.43;100479.06;4430849;32;19977;-74
2022/03/09 06:25:53;;;;;;;;;;;;;;;6.39;39.24;100484.34;4431638;32;19992;-73
2022/03/09 06:28:19;;;;;;;;;;;;;;;6.30;38.90;100489.06;4442746;32;20319;-73
2022/03/09 06:30:46;;;;;;;;;;;;;;;6.33;39.23;100485.78;4440195;32;20068;-72
2022/03/09 06:33:13;;;;;;;;;;;;;;;6.21;39.15;100493.81;4424572;32;19977;-71
2022/03/09 06:35:40;;;;;;;;;;;;;;;6.00;39.32;100494.63;4415299;32;19982;-71
2022/03/09 06:38:10;;;;;;;;;;;;;;;6.26;39.17;100487.19;4427180;32;20049;-71
2022/03/09 06:40:37;;;;;;;;;;;;;;;6.25;39.62;100486.31;4432730;32;20714;-71
2022/03/09 06:43:03;;;;;;;;;;;;;;;6.26;39.17;100487.19;4417966;32;19996;-72
2022/03/09 06:45:30;;;;;;;;;;;;;;;6.70;38.39;100489.09;4425961;32;20002;-72
2022/03/09 06:48:00;;;;;;;;;;;;;;;6.37;39.03;100492.78;4428216;32;19978;-71
2022/03/09 06:50:27;;;;;;;;;;;;;;;6.53;38.95;100490.06;4423177;32;19981;-72
2022/03/09 06:52:54;;;;;;;;;;;;;;;6.41;39.42;100486.97;4259087;32;5087163;-71
2022/03/09 06:55:22;;;;;;;;;;;;;;;6.72;38.72;100490.03;4422354;32;19997;-72
2022/03/09 06:57:48;;;;;;;;;;;;;;;6.49;39.31;100485.59;4390219;32;20030;-72
2022/03/09 07:00:16;;;;;;;;;;;;;;;6.73;38.28;100488.31;4369482;32;19991;-72
2022/03/09 07:02:44;;;;;;;;;;;;;;;6.98;38.14;100496.25;4388095;32;19987;-72
2022/03/09 07:05:11;;;;;;;;;;;;;;;7.05;37.60;100499.06;4382307;32;20018;-73
2022/03/09 07:07:38;;;;;;;;;;;;;;;6.95;38.23;100493.53;4382651;32;19988;-71
2022/03/09 07:10:10;;;;;;;;;;;;;;;7.13;37.84;100497.69;4381372;32;20008;-71
2022/03/09 07:12:40;;;;;;;;;;;;;;;7.01;38.38;100502.34;4381798;32;19997;-72
2022/03/09 07:15:08;;;;;;;;;;;;;;;7.17;38.33;100499.56;4395842;32;19971;-71
2022/03/09 07:17:35;;;;;;;;;;;;;;;7.23;37.79;100510.12;4378520;32;20069;-71
2022/03/09 07:20:02;;;;;;;;;;;;;;;7.29;37.60;100505.22;4381118;32;20319;-71
2022/03/09 07:22:33;;;;;;;;;;;;;;;6.87;38.58;100510.38;4384474;32;19983;-72
2022/03/09 07:25:00;;;;;;;;;;;;;;;7.08;38.81;100522.38;4377059;32;19979;-71
2022/03/09 07:27:27;;;;;;;;;;;;;;;7.04;37.98;100528.22;4375876;32;20352;-71
2022/03/09 07:29:55;;;;;;;;;;;;;;;7.04;38.61;100528.22;4384257;32;20025;-72
2022/03/09 07:32:22;;;;;;;;;;;;;;;7.21;38.17;100537.50;4384921;32;19978;-71
2022/03/09 07:35:09;;;;;;;;;;;;;;;7.13;38.59;100531.16;4384943;32;20794;-72
2022/03/09 07:37:37;;;;;;;;;;;;;;;6.82;38.99;100522.16;4395937;32;20257;-72
2022/03/09 07:40:05;;;;;;;;;;;;;;;6.82;39.80;100519.59;3781331;32;10001153;-73
2022/03/09 07:42:32;;;;;;;;;;;;;;;6.87;39.74;100515.53;4427915;32;19990;-72
2022/03/09 07:45:00;;;;;;;;;;;;;;;6.02;41.15;100498.13;4421187;32;19989;-72
2022/03/09 07:47:27;;;;;;;;;;;;;;;6.37;41.00;100480.81;4416823;32;20350;-73
2022/03/09 07:49:56;;;;;;;;;;;;;;;6.19;40.99;100474.87;4419011;32;19979;-73
2022/03/09 07:52:22;;;;;;;;;;;;;;;6.35;40.89;100487.59;4418338;32;19989;-73
2022/03/09 07:54:49;;;;;;;;;;;;;;;6.33;41.34;100486.66;4422300;32;20476;-73
2022/03/09 07:57:17;;;;;;;;;;;;;;;6.61;40.65;100492.97;4417011;32;20042;-72
2022/03/09 07:59:43;;;;;;;;;;;;;;;6.57;41.54;100503.94;4432696;32;20305;-73
2022/03/09 08:02:10;;;;;;;;;;;;;;;6.69;41.00;100494.16;4414456;32;19986;-74
2022/03/09 08:04:37;;;;;;;;;;;;;;;7.04;39.99;100492.19;4414726;32;20009;-73
2022/03/09 08:07:07;;;;;;;;;;;;;;;7.23;40.31;100479.22;4415542;32;19994;-73
2022/03/09 08:09:36;;;;;;;;;;;;;;;7.23;39.37;100485.25;4422826;32;20527;-73
2022/03/09 08:12:03;;;;;;;;;;;;;;;7.20;40.86;100482.53;4429639;32;20776;-74
2022/03/09 08:14:30;;;;;;;;;;;;;;;7.20;40.41;100484.25;4424802;32;20338;-73
2022/03/09 08:16:57;;;;;;;;;;;;;;;6.82;41.11;100486.12;4431268;32;20039;-73
2022/03/09 08:19:25;;;;;;;;;;;;;;;7.04;40.00;100481.88;4425247;32;19990;-74
2022/03/09 08:21:51;;;;;;;;;;;;;;;7.32;40.04;100489.88;4429003;32;20023;-73
2022/03/09 08:24:18;;;;;;;;;;;;;;;7.71;39.02;100484.50;4430243;32;20343;-74
2022/03/09 08:26:45;;;;;;;;;;;;;;;6.88;40.98;100480.38;4423541;32;20004;-73
2022/03/09 08:29:12;;;;;;;;;;;;;;;7.34;39.80;100479.62;4427292;32;19985;-72
2022/03/09 08:31:39;;;;;;;;;;;;;;;6.58;42.24;100472.28;4428086;32;19998;-74
2022/03/09 08:34:08;;;;;;;;;;;;;;;6.63;41.84;100468.19;4423432;32;20051;-73
2022/03/09 08:36:35;;;;;;;;;;;;;;;7.10;40.77;100466.69;4425568;32;19993;-73
2022/03/09 08:39:01;;;;;;;;;;;;;;;7.43;40.80;100462.88;4429256;32;19988;-72
2022/03/09 08:41:29;;;;;;;;;;;;;;;7.76;39.92;100462.38;4429724;32;20307;-73
2022/03/09 08:43:56;;;;;;;;;;;;;;;8.05;38.80;100457.41;4425488;32;20482;-73
2022/03/09 08:46:23;;;;;;;;;;;;;;;8.32;38.88;100455.78;4422878;32;20110;-73
2022/03/09 08:48:50;;;;;;;;;;;;;;;8.42;38.36;100462.19;4425466;32;19974;-73
2022/03/09 08:51:20;;;;;;;;;;;;;;;8.95;36.39;100463.13;4396642;32;20764;-73
2022/03/09 08:53:47;;;;;;;;;;;;;;;8.75;37.38;100454.72;4385940;32;20043;-73
2022/03/09 08:56:14;;;;;;;;;;;;;;;9.02;37.61;100456.44;4392699;32;19983;-74
2022/03/09 08:58:41;;;;;;;;;;;;;;;9.00;37.30;100450.37;4387572;32;19982;-72
2022/03/09 09:01:08;;;;;;;;;;;;;;;9.57;36.27;100452.97;4385631;32;19982;-72
2022/03/09 09:03:55;;;;;;;;;;;;;;;9.28;38.00;100447.84;4386843;32;20260;-73
2022/03/09 09:06:23;;;;;;;;;;;;;;;9.50;36.30;100440.72;4392875;32;20690;-72
2022/03/09 09:08:49;;;;;;;;;;;;;;;9.74;35.29;100441.44;4385605;32;19989;-73
2022/03/09 09:11:16;;;;;;;;;;;;;;;9.48;36.01;100437.22;4385130;32;20008;-74
2022/03/09 09:13:43;;;;;;;;;;;;;;;9.36;36.25;100436.84;4393038;32;20403;-73
2022/03/09 09:16:10;;;;;;;;;;;;;;;9.58;35.40;100434.09;4386642;32;20020;-73
2022/03/09 09:18:38;;;;;;;;;;;;;;;9.58;36.84;100439.25;4388799;32;20407;-73
2022/03/09 09:21:05;;;;;;;;;;;;;;;9.22;37.55;100433.81;4392151;32;19987;-74
2022/03/09 09:23:32;;;;;;;;;;;;;;;9.41;36.46;100430.09;4395363;32;20457;-74
2022/03/09 09:25:59;;;;;;;;;;;;;;;9.22;36.68;100434.72;4428051;32;20346;-74
2022/03/09 09:28:27;;;;;;;;;;;;;;;9.17;36.14;100425.94;4419167;32;19978;-74
2022/03/09 09:30:53;;;;;;;;;;;;;;;9.21;37.27;100426.91;4414537;32;20539;-74
2022/03/09 09:33:21;;;;;;;;;;;;;;;10.10;35.32;100420.03;4429096;32;20324;-74
2022/03/09 09:35:48;;;;;;;;;;;;;;;10.19;34.63;100420.28;4436363;32;19985;-74
2022/03/09 09:38:15;;;;;;;;;;;;;;;10.23;35.36;100419.53;4417251;32;20015;-73
2022/03/09 09:40:45;;;;;;;;;;;;;;;10.41;34.70;100420.91;4420852;32;19988;-73
2022/03/09 09:43:15;;;;;;;;;;;;;;;10.42;34.55;100407.97;4423641;32;19985;-75
2022/03/09 09:45:42;;;;;;;;;;;;;;;10.09;35.19;100410.53;4415069;32;19985;-74
2022/03/09 09:48:10;;;;;;;;;;;;;;;10.73;33.83;100413.06;4387078;32;20347;-73
2022/03/09 09:50:39;;;;;;;;;;;;;;;10.96;33.14;100414.50;4396122;32;19990;-75
2022/03/09 09:53:06;;;;;;;;;;;;;;;10.69;34.36;100418.19;4396394;32;20020;-74
2022/03/09 09:55:33;;;;;;;;;;;;;;;10.82;34.12;100424.53;4385233;32;19982;-74
2022/03/09 09:58:01;;;;;;;;;;;;;;;11.07;33.32;100415.63;4385636;32;20632;-74
2022/03/09 10:00:28;;;;;;;;;;;;;;;11.20;32.97;100410.72;4386826;32;20049;-73
2022/03/09 10:03:01;;;;;;;;;;;;;;;11.22;32.40;100419.41;4395729;32;20245;-74
2022/03/09 10:05:28;;;;;;;;;;;;;;;11.26;33.02;100418.62;4400193;32;20033;-73
2022/03/09 10:08:03;;;;;;;;;;;;;;;11.30;33.13;100415.28;4390278;32;20857;-74
2022/03/09 10:10:35;;;;;;;;;;;;;;;10.98;33.94;100414.53;4385469;32;20288;-74
2022/03/09 10:13:14;;;;;;;;;;;;;;;11.09;33.60;100413.94;4393080;32;20017;-73
2022/03/09 10:15:41;;;;;;;;;;;;;;;11.50;33.03;100406.22;4396235;32;19982;-74
2022/03/09 10:18:15;;;;;;;;;;;;;;;11.45;33.77;100407.81;4389435;32;20070;-73
2022/03/09 10:20:42;;;;;;;;;;;;;;;11.75;32.17;100404.13;4398606;32;20340;-73
2022/03/09 10:23:09;;;;;;;;;;;;;;;11.79;31.82;100408.53;4400227;32;20029;-73
2022/03/09 10:25:38;;;;;;;;;;;;;;;11.95;33.10;100400.25;4395153;32;20335;-74
2022/03/09 10:28:12;;;;;;;;;;;;;;;11.81;33.74;100401.66;4400313;32;20016;-73
2022/03/09 10:30:40;;;;;;;;;;;;;;;12.13;31.87;100393.66;4423929;32;19993;-73
2022/03/09 10:33:08;;;;;;;;;;;;;;;11.79;34.03;100398.16;4423969;32;20294;-73
2022/03/09 10:35:40;;;;;;;;;;;;;;;12.04;33.68;100390.03;4430822;32;19985;-73
2022/03/09 10:38:08;;;;;;;;;;;;;;;12.37;33.26;100382.84;4425212;32;20026;-72
2022/03/09 10:40:45;;;;;;;;;;;;;;;12.47;33.28;100375.22;4430797;32;19977;-73
2022/03/09 10:43:17;;;;;;;;;;;;;;;12.49;33.72;100368.34;4433348;32;19985;-74
2022/03/09 10:45:55;;;;;;;;;;;;;;;13.18;31.67;100363.34;4435204;32;20335;-72
2022/03/09 10:48:22;;;;;;;;;;;;;;;12.94;31.92;100362.13;4416138;32;19993;-73
2022/03/09 10:50:53;;;;;;;;;;;;;;;13.54;30.52;100349.09;4417248;32;19974;-74
2022/03/09 10:53:20;;;;;;;;;;;;;;;13.45;31.22;100355.94;4420961;32;20035;-73
2022/03/09 10:55:47;;;;;;;;;;;;;;;13.36;31.11;100355.81;4420014;32;20038;-73
2022/03/09 10:58:17;;;;;;;;;;;;;;;13.77;30.01;100347.62;4419453;32;20334;-73
2022/03/09 11:00:44;;;;;;;;;;;;;;;13.40;31.05;100342.00;4415489;32;19978;-74
2022/03/09 11:03:16;;;;;;;;;;;;;;;12.90;32.56;100349.94;4423986;32;19977;-74
2022/03/09 11:05:53;;;;;;;;;;;;;;;13.58;30.64;100345.69;4415476;32;19990;-74
2022/03/09 11:08:22;;;;;;;;;;;;;;;13.41;32.01;100343.75;4421378;32;19984;-74
2022/03/09 11:10:49;;;;;;;;;;;;;;;13.14;32.55;100345.94;4417941;32;20001;-73
2022/03/09 11:13:16;;;;;;;;;;;;;;;13.68;30.93;100342.31;4419345;32;19978;-73
2022/03/09 11:15:43;;;;;;;;;;;;;;;13.57;31.53;100338.75;4439419;32;19978;-73
2022/03/09 11:18:12;;;;;;;;;;;;;;;13.76;31.42;100335.50;4429129;32;19977;-75
2022/03/09 11:20:39;;;;;;;;;;;;;;;13.92;31.45;100342.59;4423570;32;20108;-73
2022/03/09 11:23:06;;;;;;;;;;;;;;;13.87;30.64;100338.19;4406240;32;20000;-73
2022/03/09 11:25:33;;;;;;;;;;;;;;;13.84;31.19;100344.22;4417722;32;20375;-73
2022/03/09 11:28:01;;;;;;;;;;;;;;;14.09;30.68;100336.69;4414507;32;19977;-73
2022/03/09 11:30:28;;;;;;;;;;;;;;;13.89;31.37;100331.28;4413658;32;19993;-74
2022/03/09 11:32:58;;;;;;;;;;;;;;;13.36;31.75;100334.12;4426626;32;19981;-74
2022/03/09 11:35:32;;;;;;;;;;;;;;;13.31;31.71;100335.81;4414907;32;19982;-73
2022/03/09 11:37:59;;;;;;;;;;;;;;;13.46;32.57;100326.47;4414752;32;19969;-73
2022/03/09 11:40:26;;;;;;;;;;;;;;;13.27;32.65;100329.69;4414562;32;19969;-76
2022/03/09 11:42:53;;;;;;;;;;;;;;;14.05;31.86;100316.69;4415557;32;19995;-73
2022/03/09 11:45:21;;;;;;;;;;;;;;;14.12;30.85;100315.88;4429179;32;19977;-75
2022/03/09 11:48:09;;;;;;;;;;;;;;;14.19;31.06;100321.16;4421738;32;20016;-74
2022/03/09 11:50:45;;;;;;;;;;;;;;;14.11;29.97;100315.03;4428239;32;20697;-73
2022/03/09 11:53:12;;;;;;;;;;;;;;;14.04;29.67;100304.53;4422034;32;19977;-73
2022/03/09 11:55:40;;;;;;;;;;;;;;;13.87;32.02;100306.97;4426322;32;20783;-75
2022/03/09 11:58:08;;;;;;;;;;;;;;;14.03;29.88;100308.00;4436343;32;19996;-74
2022/03/09 12:00:35;;;;;;;;;;;;;;;13.68;31.59;100303.28;4421912;32;20323;-73
2022/03/09 12:03:03;;;;;;;;;;;;;;;13.71;30.37;100298.13;4420261;32;20312;-73
2022/03/09 12:05:36;;;;;;;;;;;;;;;13.43;31.23;100296.94;4422134;32;19982;-74
2022/03/09 12:08:09;;;;;;;;;;;;;;;12.95;33.46;100291.09;4437996;32;19981;-72
2022/03/09 12:10:44;;;;;;;;;;;;;;;13.32;32.12;100296.81;4419325;32;19981;-72
2022/03/09 12:13:15;;;;;;;;;;;;;;;14.04;29.92;100278.50;4419811;32;19996;-72
2022/03/09 12:15:59;;;;;;;;;;;;;;;13.81;30.21;100292.16;4425066;32;20012;-73
2022/03/09 12:18:37;;;;;;;;;;;;;;;13.72;31.95;100286.88;4419974;32;19988;-75
2022/03/09 12:21:05;;;;;;;;;;;;;;;13.95;30.36;100285.38;4422855;32;20038;-73
2022/03/09 12:23:32;;;;;;;;;;;;;;;13.77;30.96;100274.78;4423321;32;20016;-72
2022/03/09 12:26:01;;;;;;;;;;;;;;;13.55;32.64;100278.88;4424937;32;19998;-72
2022/03/09 12:28:35;;;;;;;;;;;;;;;13.56;33.11;100285.84;4432028;32;20063;-71
2022/03/09 12:31:02;;;;;;;;;;;;;;;14.18;30.52;100282.09;4421414;32;19986;-72
2022/03/09 12:33:35;;;;;;;;;;;;;;;13.62;30.60;100285.03;4413136;32;19987;-73
2022/03/09 12:36:07;;;;;;;;;;;;;;;13.40;31.57;100289.09;4373657;32;19997;-73
2022/03/09 12:38:58;;;;;;;;;;;;;;;14.00;30.47;100288.00;4375220;32;20050;-72
2022/03/09 12:41:29;;;;;;;;;;;;;;;14.38;28.93;100275.31;4377370;32;19978;-75
2022/03/09 12:43:57;;;;;;;;;;;;;;;14.02;29.80;100277.63;4383838;32;19983;-77
2022/03/09 12:46:24;;;;;;;;;;;;;;;13.90;30.92;100281.84;4374958;32;20001;-75
2022/03/09 12:48:59;;;;;;;;;;;;;;;13.96;31.17;100276.69;4384555;32;20025;-75